sensor_id;sensor_type;location;lat;lon;timestamp;P1;durP1;ratioP1;P2;durP2;ratioP2
37655;SDS011;23498;50.958;3.124;2023-03-30T00:00:46;2.85;;;1.00;;
37655;SDS011;23498;50.958;3.124;2023-03-30T00:03:12;2.50;;;1.00;;
37655;SDS011;23498;50.958;3.124;2023-03-30T00:05:38;4.93;;;1.08;;
37655;SDS011;23498;50.958;3.124;2023-03-30T00:08:06;3.60;;;1.00;;
37655;SDS011;23498;50.958;3.124;2023-03-30T00:10:32;3.13;;;1.10;;
37655;SDS011;23498;50.958;3.124;2023-03-30T00:12:58;4.20;;;1.40;;
37655;SDS011;23498;50.958;3.124;2023-03-30T00:15:24;3.67;;;1.13;;
37655;SDS011;23498;50.958;3.124;2023-03-30T00:17:50;2.92;;;1.23;;
37655;SDS011;23498;50.958;3.124;2023-03-30T00:20:19;4.53;;;1.40;;
37655;SDS011;23498;50.958;3.124;2023-03-30T00:22:45;3.63;;;1.23;;
37655;SDS011;23498;50.958;3.124;2023-03-30T00:25:14;2.95;;;0.90;;
37655;SDS011;23498;50.958;3.124;2023-03-30T00:27:41;4.07;;;1.23;;
37655;SDS011;23498;50.958;3.124;2023-03-30T00:30:10;5.22;;;1.30;;
37655;SDS011;23498;50.958;3.124;2023-03-30T00:32:37;2.97;;;1.10;;
37655;SDS011;23498;50.958;3.124;2023-03-30T00:35:03;3.88;;;1.20;;
37655;SDS011;23498;50.958;3.124;2023-03-30T00:37:29;2.85;;;1.20;;
37655;SDS011;23498;50.958;3.124;2023-03-30T00:39:56;3.08;;;1.08;;
37655;SDS011;23498;50.958;3.124;2023-03-30T00:42:22;4.88;;;1.10;;
37655;SDS011;23498;50.958;3.124;2023-03-30T00:47:37;4.10;;;1.00;;
37655;SDS011;23498;50.958;3.124;2023-03-30T00:50:05;3.42;;;1.05;;
37655;SDS011;23498;50.958;3.124;2023-03-30T00:52:32;2.83;;;1.00;;
37655;SDS011;23498;50.958;3.124;2023-03-30T00:55:01;4.78;;;1.10;;
37655;SDS011;23498;50.958;3.124;2023-03-30T00:57:27;2.60;;;1.23;;
37655;SDS011;23498;50.958;3.124;2023-03-30T00:59:54;4.60;;;1.50;;
37655;SDS011;23498;50.958;3.124;2023-03-30T01:02:21;3.85;;;1.15;;
37655;SDS011;23498;50.958;3.124;2023-03-30T01:04:48;4.50;;;1.52;;
37655;SDS011;23498;50.958;3.124;2023-03-30T01:07:17;2.55;;;1.05;;
37655;SDS011;23498;50.958;3.124;2023-03-30T01:09:43;4.40;;;1.20;;
37655;SDS011;23498;50.958;3.124;2023-03-30T01:12:09;3.72;;;1.38;;
37655;SDS011;23498;50.958;3.124;2023-03-30T01:14:36;3.88;;;1.48;;
37655;SDS011;23498;50.958;3.124;2023-03-30T01:17:12;2.97;;;1.08;;
37655;SDS011;23498;50.958;3.124;2023-03-30T01:27:34;4.65;;;1.42;;
37655;SDS011;23498;50.958;3.124;2023-03-30T01:35:40;4.20;;;1.25;;
37655;SDS011;23498;50.958;3.124;2023-03-30T01:38:55;7.70;;;1.38;;
37655;SDS011;23498;50.958;3.124;2023-03-30T01:46:54;7.65;;;1.88;;
37655;SDS011;23498;50.958;3.124;2023-03-30T01:49:42;8.27;;;1.77;;
37655;SDS011;23498;50.958;3.124;2023-03-30T01:51:54;6.50;;;1.50;;
37655;SDS011;23498;50.958;3.124;2023-03-30T01:54:22;8.18;;;1.63;;
37655;SDS011;23498;50.958;3.124;2023-03-30T01:56:52;6.82;;;1.85;;
37655;SDS011;23498;50.958;3.124;2023-03-30T02:01:49;6.38;;;1.77;;
37655;SDS011;23498;50.958;3.124;2023-03-30T02:04:18;6.40;;;1.70;;
37655;SDS011;23498;50.958;3.124;2023-03-30T02:06:48;7.07;;;1.80;;
37655;SDS011;23498;50.958;3.124;2023-03-30T02:09:17;6.72;;;1.70;;
37655;SDS011;23498;50.958;3.124;2023-03-30T02:11:45;6.22;;;1.70;;
37655;SDS011;23498;50.958;3.124;2023-03-30T02:14:13;8.48;;;2.03;;
37655;SDS011;23498;50.958;3.124;2023-03-30T02:16:41;7.35;;;1.80;;
37655;SDS011;23498;50.958;3.124;2023-03-30T02:19:09;9.05;;;1.67;;
37655;SDS011;23498;50.958;3.124;2023-03-30T02:21:35;7.35;;;1.60;;
37655;SDS011;23498;50.958;3.124;2023-03-30T02:24:02;8.32;;;1.85;;
37655;SDS011;23498;50.958;3.124;2023-03-30T02:26:29;6.45;;;1.60;;
37655;SDS011;23498;50.958;3.124;2023-03-30T02:28:56;7.45;;;1.80;;
37655;SDS011;23498;50.958;3.124;2023-03-30T02:31:22;5.32;;;1.77;;
37655;SDS011;23498;50.958;3.124;2023-03-30T02:33:58;6.07;;;1.60;;
37655;SDS011;23498;50.958;3.124;2023-03-30T02:38:56;6.10;;;1.80;;
37655;SDS011;23498;50.958;3.124;2023-03-30T02:48:55;5.95;;;1.85;;
37655;SDS011;23498;50.958;3.124;2023-03-30T02:56:22;8.60;;;2.03;;
37655;SDS011;23498;50.958;3.124;2023-03-30T02:59:01;6.22;;;1.90;;
37655;SDS011;23498;50.958;3.124;2023-03-30T03:03:56;10.95;;;2.10;;
37655;SDS011;23498;50.958;3.124;2023-03-30T03:06:22;7.07;;;2.05;;
37655;SDS011;23498;50.958;3.124;2023-03-30T03:08:48;6.88;;;2.22;;
37655;SDS011;23498;50.958;3.124;2023-03-30T03:11:14;6.50;;;2.00;;
37655;SDS011;23498;50.958;3.124;2023-03-30T03:13:41;8.02;;;2.20;;
37655;SDS011;23498;50.958;3.124;2023-03-30T03:16:08;13.77;;;2.10;;
37655;SDS011;23498;50.958;3.124;2023-03-30T03:18:37;7.90;;;2.40;;
37655;SDS011;23498;50.958;3.124;2023-03-30T03:21:10;7.25;;;1.98;;
37655;SDS011;23498;50.958;3.124;2023-03-30T03:23:37;8.90;;;2.20;;
37655;SDS011;23498;50.958;3.124;2023-03-30T03:26:04;9.52;;;2.22;;
37655;SDS011;23498;50.958;3.124;2023-03-30T03:28:31;6.25;;;1.83;;
37655;SDS011;23498;50.958;3.124;2023-03-30T03:30:57;10.32;;;2.10;;
37655;SDS011;23498;50.958;3.124;2023-03-30T03:33:26;7.80;;;2.30;;
37655;SDS011;23498;50.958;3.124;2023-03-30T03:35:53;5.00;;;1.55;;
37655;SDS011;23498;50.958;3.124;2023-03-30T03:38:19;9.95;;;2.28;;
37655;SDS011;23498;50.958;3.124;2023-03-30T03:40:49;8.43;;;1.85;;
37655;SDS011;23498;50.958;3.124;2023-03-30T03:43:15;9.93;;;2.58;;
37655;SDS011;23498;50.958;3.124;2023-03-30T03:45:41;6.70;;;1.95;;
37655;SDS011;23498;50.958;3.124;2023-03-30T03:48:09;6.50;;;1.95;;
37655;SDS011;23498;50.958;3.124;2023-03-30T03:50:35;8.52;;;1.88;;
37655;SDS011;23498;50.958;3.124;2023-03-30T03:53:02;9.25;;;2.10;;
37655;SDS011;23498;50.958;3.124;2023-03-30T03:55:28;9.63;;;2.10;;
37655;SDS011;23498;50.958;3.124;2023-03-30T03:57:54;7.82;;;2.10;;
37655;SDS011;23498;50.958;3.124;2023-03-30T04:00:20;11.45;;;2.28;;
37655;SDS011;23498;50.958;3.124;2023-03-30T04:02:47;12.05;;;2.70;;
37655;SDS011;23498;50.958;3.124;2023-03-30T04:05:13;9.73;;;2.10;;
37655;SDS011;23498;50.958;3.124;2023-03-30T04:07:39;8.15;;;2.35;;
37655;SDS011;23498;50.958;3.124;2023-03-30T04:10:06;7.95;;;1.80;;
37655;SDS011;23498;50.958;3.124;2023-03-30T04:12:32;9.13;;;2.47;;
37655;SDS011;23498;50.958;3.124;2023-03-30T04:14:58;11.13;;;2.50;;
37655;SDS011;23498;50.958;3.124;2023-03-30T04:17:24;13.75;;;2.70;;
37655;SDS011;23498;50.958;3.124;2023-03-30T04:19:51;9.68;;;2.25;;
37655;SDS011;23498;50.958;3.124;2023-03-30T04:22:20;7.45;;;2.60;;
37655;SDS011;23498;50.958;3.124;2023-03-30T04:24:50;16.70;;;3.22;;
37655;SDS011;23498;50.958;3.124;2023-03-30T04:27:16;10.15;;;2.65;;
37655;SDS011;23498;50.958;3.124;2023-03-30T04:29:42;10.65;;;2.95;;
37655;SDS011;23498;50.958;3.124;2023-03-30T04:32:09;11.52;;;2.70;;
37655;SDS011;23498;50.958;3.124;2023-03-30T04:34:38;11.63;;;2.67;;
37655;SDS011;23498;50.958;3.124;2023-03-30T04:37:07;13.48;;;2.60;;
37655;SDS011;23498;50.958;3.124;2023-03-30T04:39:33;15.48;;;2.90;;
37655;SDS011;23498;50.958;3.124;2023-03-30T04:41:59;13.43;;;3.05;;
37655;SDS011;23498;50.958;3.124;2023-03-30T04:44:30;9.55;;;2.30;;
37655;SDS011;23498;50.958;3.124;2023-03-30T04:46:56;13.43;;;2.58;;
37655;SDS011;23498;50.958;3.124;2023-03-30T04:49:22;12.20;;;2.90;;
37655;SDS011;23498;50.958;3.124;2023-03-30T04:51:48;13.95;;;2.72;;
37655;SDS011;23498;50.958;3.124;2023-03-30T04:54:14;18.90;;;3.58;;
37655;SDS011;23498;50.958;3.124;2023-03-30T04:56:40;14.00;;;2.55;;
37655;SDS011;23498;50.958;3.124;2023-03-30T04:59:06;25.48;;;3.85;;
37655;SDS011;23498;50.958;3.124;2023-03-30T05:01:32;14.45;;;2.72;;
37655;SDS011;23498;50.958;3.124;2023-03-30T05:03:58;17.98;;;3.50;;
37655;SDS011;23498;50.958;3.124;2023-03-30T05:06:24;15.18;;;3.83;;
37655;SDS011;23498;50.958;3.124;2023-03-30T05:08:51;17.88;;;3.15;;
37655;SDS011;23498;50.958;3.124;2023-03-30T05:11:17;18.25;;;3.88;;
37655;SDS011;23498;50.958;3.124;2023-03-30T05:13:43;14.63;;;2.85;;
37655;SDS011;23498;50.958;3.124;2023-03-30T05:16:09;15.25;;;3.03;;
37655;SDS011;23498;50.958;3.124;2023-03-30T05:18:35;18.83;;;4.18;;
37655;SDS011;23498;50.958;3.124;2023-03-30T05:21:02;21.65;;;3.55;;
37655;SDS011;23498;50.958;3.124;2023-03-30T05:23:28;18.00;;;3.10;;
37655;SDS011;23498;50.958;3.124;2023-03-30T05:25:54;15.95;;;3.00;;
37655;SDS011;23498;50.958;3.124;2023-03-30T05:28:21;18.23;;;2.97;;
37655;SDS011;23498;50.958;3.124;2023-03-30T05:30:51;17.08;;;4.20;;
37655;SDS011;23498;50.958;3.124;2023-03-30T05:33:17;18.17;;;3.97;;
37655;SDS011;23498;50.958;3.124;2023-03-30T05:35:43;22.20;;;4.57;;
37655;SDS011;23498;50.958;3.124;2023-03-30T05:38:09;22.67;;;4.30;;
37655;SDS011;23498;50.958;3.124;2023-03-30T05:40:35;18.65;;;3.65;;
37655;SDS011;23498;50.958;3.124;2023-03-30T05:43:01;24.50;;;3.58;;
37655;SDS011;23498;50.958;3.124;2023-03-30T05:45:28;26.42;;;4.43;;
37655;SDS011;23498;50.958;3.124;2023-03-30T05:47:54;18.45;;;3.53;;
37655;SDS011;23498;50.958;3.124;2023-03-30T05:50:20;19.60;;;3.90;;
37655;SDS011;23498;50.958;3.124;2023-03-30T05:52:46;18.30;;;3.30;;
37655;SDS011;23498;50.958;3.124;2023-03-30T05:55:12;21.80;;;3.90;;
37655;SDS011;23498;50.958;3.124;2023-03-30T05:57:39;23.75;;;3.97;;
37655;SDS011;23498;50.958;3.124;2023-03-30T06:00:05;18.10;;;3.92;;
37655;SDS011;23498;50.958;3.124;2023-03-30T06:02:33;23.98;;;3.63;;
37655;SDS011;23498;50.958;3.124;2023-03-30T06:04:59;18.13;;;3.55;;
37655;SDS011;23498;50.958;3.124;2023-03-30T06:07:26;20.90;;;3.60;;
37655;SDS011;23498;50.958;3.124;2023-03-30T06:09:52;25.17;;;4.18;;
37655;SDS011;23498;50.958;3.124;2023-03-30T06:12:18;23.77;;;4.40;;
37655;SDS011;23498;50.958;3.124;2023-03-30T06:14:44;16.88;;;4.15;;
37655;SDS011;23498;50.958;3.124;2023-03-30T06:17:10;17.58;;;3.20;;
37655;SDS011;23498;50.958;3.124;2023-03-30T06:19:37;21.52;;;4.22;;
37655;SDS011;23498;50.958;3.124;2023-03-30T06:22:04;20.98;;;3.60;;
37655;SDS011;23498;50.958;3.124;2023-03-30T06:24:30;17.60;;;3.75;;
37655;SDS011;23498;50.958;3.124;2023-03-30T06:26:56;22.33;;;4.03;;
37655;SDS011;23498;50.958;3.124;2023-03-30T06:29:22;25.80;;;4.00;;
37655;SDS011;23498;50.958;3.124;2023-03-30T06:31:48;20.00;;;4.00;;
37655;SDS011;23498;50.958;3.124;2023-03-30T06:34:15;18.15;;;3.47;;
37655;SDS011;23498;50.958;3.124;2023-03-30T06:36:41;23.05;;;4.32;;
37655;SDS011;23498;50.958;3.124;2023-03-30T06:39:08;23.92;;;4.70;;
37655;SDS011;23498;50.958;3.124;2023-03-30T06:41:35;33.75;;;4.70;;
37655;SDS011;23498;50.958;3.124;2023-03-30T06:44:01;24.58;;;4.43;;
37655;SDS011;23498;50.958;3.124;2023-03-30T06:46:27;23.23;;;5.05;;
37655;SDS011;23498;50.958;3.124;2023-03-30T06:48:53;17.45;;;3.95;;
37655;SDS011;23498;50.958;3.124;2023-03-30T06:51:19;25.05;;;4.32;;
37655;SDS011;23498;50.958;3.124;2023-03-30T06:53:45;25.50;;;4.60;;
37655;SDS011;23498;50.958;3.124;2023-03-30T06:56:11;24.60;;;4.20;;
37655;SDS011;23498;50.958;3.124;2023-03-30T06:58:37;27.95;;;4.32;;
37655;SDS011;23498;50.958;3.124;2023-03-30T07:01:07;18.88;;;3.83;;
37655;SDS011;23498;50.958;3.124;2023-03-30T07:03:34;23.30;;;4.22;;
37655;SDS011;23498;50.958;3.124;2023-03-30T07:06:00;25.05;;;4.18;;
37655;SDS011;23498;50.958;3.124;2023-03-30T07:08:26;28.33;;;4.53;;
37655;SDS011;23498;50.958;3.124;2023-03-30T07:10:52;23.10;;;4.43;;
37655;SDS011;23498;50.958;3.124;2023-03-30T07:13:18;22.40;;;4.22;;
37655;SDS011;23498;50.958;3.124;2023-03-30T07:15:44;19.65;;;3.72;;
37655;SDS011;23498;50.958;3.124;2023-03-30T07:18:11;21.70;;;4.03;;
37655;SDS011;23498;50.958;3.124;2023-03-30T07:20:37;25.35;;;4.22;;
37655;SDS011;23498;50.958;3.124;2023-03-30T07:23:03;24.80;;;4.10;;
37655;SDS011;23498;50.958;3.124;2023-03-30T07:25:29;26.33;;;4.35;;
37655;SDS011;23498;50.958;3.124;2023-03-30T07:27:56;21.45;;;3.72;;
37655;SDS011;23498;50.958;3.124;2023-03-30T07:30:22;24.10;;;4.07;;
37655;SDS011;23498;50.958;3.124;2023-03-30T07:32:48;22.40;;;4.70;;
37655;SDS011;23498;50.958;3.124;2023-03-30T07:35:14;26.02;;;4.40;;
37655;SDS011;23498;50.958;3.124;2023-03-30T07:37:41;23.40;;;3.67;;
37655;SDS011;23498;50.958;3.124;2023-03-30T07:40:08;18.23;;;3.30;;
37655;SDS011;23498;50.958;3.124;2023-03-30T07:42:35;26.42;;;4.38;;
37655;SDS011;23498;50.958;3.124;2023-03-30T07:45:02;20.95;;;3.80;;
37655;SDS011;23498;50.958;3.124;2023-03-30T07:47:28;25.15;;;3.97;;
37655;SDS011;23498;50.958;3.124;2023-03-30T07:49:54;23.35;;;4.72;;
37655;SDS011;23498;50.958;3.124;2023-03-30T07:52:20;24.17;;;4.80;;
37655;SDS011;23498;50.958;3.124;2023-03-30T07:54:46;22.38;;;4.32;;
37655;SDS011;23498;50.958;3.124;2023-03-30T07:57:12;20.92;;;3.40;;
37655;SDS011;23498;50.958;3.124;2023-03-30T07:59:38;19.23;;;4.50;;
37655;SDS011;23498;50.958;3.124;2023-03-30T08:02:05;22.45;;;3.55;;
37655;SDS011;23498;50.958;3.124;2023-03-30T08:04:31;24.08;;;3.75;;
37655;SDS011;23498;50.958;3.124;2023-03-30T08:06:58;20.63;;;3.88;;
37655;SDS011;23498;50.958;3.124;2023-03-30T08:09:25;20.92;;;3.97;;
37655;SDS011;23498;50.958;3.124;2023-03-30T08:11:51;23.67;;;5.53;;
37655;SDS011;23498;50.958;3.124;2023-03-30T08:14:17;25.17;;;4.13;;
37655;SDS011;23498;50.958;3.124;2023-03-30T08:16:43;22.80;;;3.60;;
37655;SDS011;23498;50.958;3.124;2023-03-30T08:19:09;21.23;;;3.67;;
37655;SDS011;23498;50.958;3.124;2023-03-30T08:21:35;22.25;;;3.63;;
37655;SDS011;23498;50.958;3.124;2023-03-30T08:24:01;21.85;;;3.42;;
37655;SDS011;23498;50.958;3.124;2023-03-30T08:26:28;20.50;;;4.32;;
37655;SDS011;23498;50.958;3.124;2023-03-30T08:28:55;16.40;;;2.88;;
37655;SDS011;23498;50.958;3.124;2023-03-30T08:31:24;23.10;;;3.92;;
37655;SDS011;23498;50.958;3.124;2023-03-30T08:33:58;20.73;;;3.80;;
37655;SDS011;23498;50.958;3.124;2023-03-30T08:36:24;21.77;;;4.20;;
37655;SDS011;23498;50.958;3.124;2023-03-30T08:38:50;20.90;;;3.90;;
37655;SDS011;23498;50.958;3.124;2023-03-30T08:43:55;17.95;;;4.03;;
37655;SDS011;23498;50.958;3.124;2023-03-30T08:46:22;17.55;;;4.10;;
37655;SDS011;23498;50.958;3.124;2023-03-30T08:48:49;18.85;;;4.25;;
37655;SDS011;23498;50.958;3.124;2023-03-30T08:54:11;21.00;;;4.22;;
37655;SDS011;23498;50.958;3.124;2023-03-30T08:56:37;13.40;;;3.15;;
37655;SDS011;23498;50.958;3.124;2023-03-30T09:01:42;18.83;;;3.45;;
37655;SDS011;23498;50.958;3.124;2023-03-30T09:07:07;16.15;;;3.33;;
37655;SDS011;23498;50.958;3.124;2023-03-30T09:09:39;14.52;;;3.03;;
37655;SDS011;23498;50.958;3.124;2023-03-30T09:12:07;13.88;;;2.90;;
37655;SDS011;23498;50.958;3.124;2023-03-30T09:14:41;14.90;;;2.63;;
37655;SDS011;23498;50.958;3.124;2023-03-30T09:17:18;18.38;;;3.25;;
37655;SDS011;23498;50.958;3.124;2023-03-30T09:22:11;14.40;;;3.15;;
37655;SDS011;23498;50.958;3.124;2023-03-30T09:24:39;16.13;;;3.47;;
37655;SDS011;23498;50.958;3.124;2023-03-30T09:27:09;17.60;;;3.03;;
37655;SDS011;23498;50.958;3.124;2023-03-30T09:29:42;14.40;;;2.28;;
37655;SDS011;23498;50.958;3.124;2023-03-30T09:32:32;13.82;;;3.05;;
37655;SDS011;23498;50.958;3.124;2023-03-30T09:37:23;19.70;;;3.58;;
37655;SDS011;23498;50.958;3.124;2023-03-30T09:39:49;17.23;;;3.35;;
37655;SDS011;23498;50.958;3.124;2023-03-30T09:45:14;12.98;;;2.78;;
37655;SDS011;23498;50.958;3.124;2023-03-30T09:47:43;13.18;;;2.70;;
37655;SDS011;23498;50.958;3.124;2023-03-30T09:52:52;23.52;;;4.00;;
37655;SDS011;23498;50.958;3.124;2023-03-30T09:57:46;20.65;;;4.15;;
37655;SDS011;23498;50.958;3.124;2023-03-30T10:02:53;16.88;;;3.78;;
37655;SDS011;23498;50.958;3.124;2023-03-30T10:07:46;17.00;;;3.28;;
37655;SDS011;23498;50.958;3.124;2023-03-30T10:15:35;19.98;;;3.97;;
37655;SDS011;23498;50.958;3.124;2023-03-30T10:18:05;17.40;;;3.40;;
37655;SDS011;23498;50.958;3.124;2023-03-30T10:20:37;18.77;;;3.85;;
37655;SDS011;23498;50.958;3.124;2023-03-30T10:23:04;12.32;;;3.55;;
37655;SDS011;23498;50.958;3.124;2023-03-30T10:25:33;19.80;;;3.88;;
37655;SDS011;23498;50.958;3.124;2023-03-30T10:28:00;18.90;;;3.75;;
37655;SDS011;23498;50.958;3.124;2023-03-30T10:30:27;20.35;;;3.40;;
37655;SDS011;23498;50.958;3.124;2023-03-30T10:32:55;20.70;;;3.95;;
37655;SDS011;23498;50.958;3.124;2023-03-30T10:35:23;23.65;;;3.78;;
37655;SDS011;23498;50.958;3.124;2023-03-30T10:37:50;22.40;;;3.65;;
37655;SDS011;23498;50.958;3.124;2023-03-30T10:40:18;23.15;;;4.95;;
37655;SDS011;23498;50.958;3.124;2023-03-30T10:42:46;21.80;;;3.58;;
37655;SDS011;23498;50.958;3.124;2023-03-30T10:45:15;21.00;;;3.58;;
37655;SDS011;23498;50.958;3.124;2023-03-30T10:52:48;25.50;;;4.18;;
37655;SDS011;23498;50.958;3.124;2023-03-30T10:55:17;17.10;;;3.40;;
37655;SDS011;23498;50.958;3.124;2023-03-30T10:57:52;18.05;;;4.20;;
37655;SDS011;23498;50.958;3.124;2023-03-30T11:05:24;15.10;;;3.35;;
37655;SDS011;23498;50.958;3.124;2023-03-30T11:09:02;20.45;;;3.65;;
37655;SDS011;23498;50.958;3.124;2023-03-30T11:11:00;16.50;;;2.90;;
37655;SDS011;23498;50.958;3.124;2023-03-30T11:13:27;15.15;;;3.67;;
37655;SDS011;23498;50.958;3.124;2023-03-30T11:16:10;19.33;;;3.60;;
37655;SDS011;23498;50.958;3.124;2023-03-30T11:21:19;19.05;;;3.90;;
37655;SDS011;23498;50.958;3.124;2023-03-30T11:31:41;16.73;;;3.03;;
37655;SDS011;23498;50.958;3.124;2023-03-30T11:34:12;17.83;;;3.65;;
37655;SDS011;23498;50.958;3.124;2023-03-30T11:36:44;20.02;;;4.03;;
37655;SDS011;23498;50.958;3.124;2023-03-30T11:39:13;15.90;;;3.33;;
37655;SDS011;23498;50.958;3.124;2023-03-30T11:41:41;16.98;;;3.30;;
37655;SDS011;23498;50.958;3.124;2023-03-30T11:44:09;21.73;;;3.65;;
37655;SDS011;23498;50.958;3.124;2023-03-30T11:46:47;19.38;;;4.07;;
37655;SDS011;23498;50.958;3.124;2023-03-30T11:49:25;16.77;;;3.92;;
37655;SDS011;23498;50.958;3.124;2023-03-30T11:52:02;24.60;;;4.05;;
37655;SDS011;23498;50.958;3.124;2023-03-30T12:04:41;14.95;;;2.92;;
37655;SDS011;23498;50.958;3.124;2023-03-30T12:07:17;16.98;;;3.33;;
37655;SDS011;23498;50.958;3.124;2023-03-30T12:10:04;11.30;;;2.80;;
37655;SDS011;23498;50.958;3.124;2023-03-30T12:12:51;14.82;;;2.55;;
37655;SDS011;23498;50.958;3.124;2023-03-30T12:15:30;16.02;;;2.10;;
37655;SDS011;23498;50.958;3.124;2023-03-30T12:20:52;13.35;;;2.42;;
37655;SDS011;23498;50.958;3.124;2023-03-30T12:28:15;12.38;;;2.10;;
37655;SDS011;23498;50.958;3.124;2023-03-30T12:33:19;13.47;;;2.47;;
37655;SDS011;23498;50.958;3.124;2023-03-30T12:35:58;12.30;;;2.65;;
37655;SDS011;23498;50.958;3.124;2023-03-30T12:38:25;14.52;;;2.28;;
37655;SDS011;23498;50.958;3.124;2023-03-30T12:41:04;17.48;;;2.53;;
37655;SDS011;23498;50.958;3.124;2023-03-30T12:46:11;14.77;;;2.67;;
37655;SDS011;23498;50.958;3.124;2023-03-30T12:54:10;19.05;;;3.35;;
37655;SDS011;23498;50.958;3.124;2023-03-30T13:04:44;19.52;;;3.47;;
37655;SDS011;23498;50.958;3.124;2023-03-30T13:07:13;14.80;;;2.92;;
37655;SDS011;23498;50.958;3.124;2023-03-30T13:12:33;17.80;;;3.95;;
37655;SDS011;23498;50.958;3.124;2023-03-30T13:15:01;11.77;;;2.93;;
37655;SDS011;23498;50.958;3.124;2023-03-30T13:17:42;11.57;;;2.47;;
37655;SDS011;23498;50.958;3.124;2023-03-30T13:22:51;18.08;;;3.28;;
37655;SDS011;23498;50.958;3.124;2023-03-30T13:25:59;12.80;;;2.40;;
37655;SDS011;23498;50.958;3.124;2023-03-30T13:29:01;13.15;;;2.30;;
37655;SDS011;23498;50.958;3.124;2023-03-30T13:31:14;12.57;;;2.88;;
37655;SDS011;23498;50.958;3.124;2023-03-30T13:33:43;16.75;;;3.33;;
37655;SDS011;23498;50.958;3.124;2023-03-30T13:36:12;13.57;;;2.83;;
37655;SDS011;23498;50.958;3.124;2023-03-30T13:41:21;14.10;;;2.67;;
37655;SDS011;23498;50.958;3.124;2023-03-30T13:49:01;7.43;;;1.63;;
37655;SDS011;23498;50.958;3.124;2023-03-30T13:51:29;9.27;;;1.90;;
37655;SDS011;23498;50.958;3.124;2023-03-30T13:53:57;9.77;;;2.00;;
37655;SDS011;23498;50.958;3.124;2023-03-30T13:56:25;7.72;;;2.08;;
37655;SDS011;23498;50.958;3.124;2023-03-30T13:58:56;11.32;;;2.05;;
37655;SDS011;23498;50.958;3.124;2023-03-30T14:01:24;8.48;;;1.77;;
37655;SDS011;23498;50.958;3.124;2023-03-30T14:03:57;9.52;;;1.30;;
37655;SDS011;23498;50.958;3.124;2023-03-30T14:06:25;9.93;;;2.13;;
37655;SDS011;23498;50.958;3.124;2023-03-30T14:11:38;9.70;;;2.22;;
37655;SDS011;23498;50.958;3.124;2023-03-30T14:14:05;13.80;;;2.38;;
37655;SDS011;23498;50.958;3.124;2023-03-30T14:16:32;14.10;;;2.53;;
37655;SDS011;23498;50.958;3.124;2023-03-30T14:19:05;9.07;;;2.10;;
37655;SDS011;23498;50.958;3.124;2023-03-30T14:21:34;14.48;;;2.35;;
37655;SDS011;23498;50.958;3.124;2023-03-30T14:24:00;10.70;;;1.90;;
37655;SDS011;23498;50.958;3.124;2023-03-30T14:26:27;14.57;;;2.95;;
37655;SDS011;23498;50.958;3.124;2023-03-30T14:28:55;13.55;;;2.40;;
37655;SDS011;23498;50.958;3.124;2023-03-30T14:31:21;13.80;;;2.33;;
37655;SDS011;23498;50.958;3.124;2023-03-30T14:33:47;12.82;;;2.85;;
37655;SDS011;23498;50.958;3.124;2023-03-30T14:36:14;11.70;;;2.05;;
37655;SDS011;23498;50.958;3.124;2023-03-30T14:38:42;9.55;;;1.98;;
37655;SDS011;23498;50.958;3.124;2023-03-30T14:41:22;11.20;;;2.40;;
37655;SDS011;23498;50.958;3.124;2023-03-30T14:46:17;14.55;;;2.55;;
37655;SDS011;23498;50.958;3.124;2023-03-30T14:48:44;9.27;;;2.67;;
37655;SDS011;23498;50.958;3.124;2023-03-30T14:51:19;14.98;;;2.97;;
37655;SDS011;23498;50.958;3.124;2023-03-30T14:53:46;14.20;;;2.83;;
37655;SDS011;23498;50.958;3.124;2023-03-30T14:56:12;14.80;;;2.33;;
37655;SDS011;23498;50.958;3.124;2023-03-30T14:58:41;11.63;;;2.63;;
37655;SDS011;23498;50.958;3.124;2023-03-30T15:01:09;14.63;;;2.65;;
37655;SDS011;23498;50.958;3.124;2023-03-30T15:03:37;16.70;;;2.95;;
37655;SDS011;23498;50.958;3.124;2023-03-30T15:06:05;16.42;;;3.17;;
37655;SDS011;23498;50.958;3.124;2023-03-30T15:08:35;16.05;;;3.05;;
37655;SDS011;23498;50.958;3.124;2023-03-30T15:11:04;13.68;;;2.42;;
37655;SDS011;23498;50.958;3.124;2023-03-30T15:16:26;17.67;;;3.40;;
37655;SDS011;23498;50.958;3.124;2023-03-30T15:19:12;15.45;;;3.22;;
37655;SDS011;23498;50.958;3.124;2023-03-30T15:21:58;17.20;;;3.00;;
37655;SDS011;23498;50.958;3.124;2023-03-30T15:24:44;16.92;;;2.85;;
37655;SDS011;23498;50.958;3.124;2023-03-30T15:27:10;11.88;;;3.22;;
37655;SDS011;23498;50.958;3.124;2023-03-30T15:29:46;14.05;;;2.20;;
37655;SDS011;23498;50.958;3.124;2023-03-30T15:37:57;15.02;;;3.20;;
37655;SDS011;23498;50.958;3.124;2023-03-30T15:40:40;14.25;;;2.38;;
37655;SDS011;23498;50.958;3.124;2023-03-30T15:43:25;12.82;;;2.40;;
37655;SDS011;23498;50.958;3.124;2023-03-30T15:45:55;13.07;;;2.85;;
37655;SDS011;23498;50.958;3.124;2023-03-30T15:48:42;15.23;;;3.55;;
37655;SDS011;23498;50.958;3.124;2023-03-30T15:53:51;10.50;;;2.30;;
37655;SDS011;23498;50.958;3.124;2023-03-30T15:56:20;12.40;;;2.33;;
37655;SDS011;23498;50.958;3.124;2023-03-30T15:58:47;11.27;;;2.42;;
37655;SDS011;23498;50.958;3.124;2023-03-30T16:01:14;11.73;;;2.53;;
37655;SDS011;23498;50.958;3.124;2023-03-30T16:03:46;18.27;;;2.85;;
37655;SDS011;23498;50.958;3.124;2023-03-30T16:06:13;7.78;;;1.92;;
37655;SDS011;23498;50.958;3.124;2023-03-30T16:08:48;11.10;;;2.75;;
37655;SDS011;23498;50.958;3.124;2023-03-30T16:11:16;9.38;;;1.80;;
37655;SDS011;23498;50.958;3.124;2023-03-30T16:13:45;16.42;;;3.05;;
37655;SDS011;23498;50.958;3.124;2023-03-30T16:16:12;14.25;;;2.38;;
37655;SDS011;23498;50.958;3.124;2023-03-30T16:18:39;18.90;;;2.90;;
37655;SDS011;23498;50.958;3.124;2023-03-30T16:21:07;15.02;;;2.90;;
37655;SDS011;23498;50.958;3.124;2023-03-30T16:23:34;16.85;;;2.70;;
37655;SDS011;23498;50.958;3.124;2023-03-30T16:26:18;12.15;;;2.75;;
37655;SDS011;23498;50.958;3.124;2023-03-30T16:28:51;9.23;;;2.38;;
37655;SDS011;23498;50.958;3.124;2023-03-30T16:31:19;14.63;;;3.05;;
37655;SDS011;23498;50.958;3.124;2023-03-30T16:33:46;12.75;;;2.78;;
37655;SDS011;23498;50.958;3.124;2023-03-30T16:36:19;11.98;;;2.67;;
37655;SDS011;23498;50.958;3.124;2023-03-30T16:38:45;15.95;;;2.15;;
37655;SDS011;23498;50.958;3.124;2023-03-30T16:41:18;14.85;;;2.88;;
37655;SDS011;23498;50.958;3.124;2023-03-30T16:43:50;12.82;;;2.92;;
37655;SDS011;23498;50.958;3.124;2023-03-30T16:46:19;14.32;;;3.92;;
37655;SDS011;23498;50.958;3.124;2023-03-30T16:48:47;16.13;;;2.97;;
37655;SDS011;23498;50.958;3.124;2023-03-30T16:51:17;14.32;;;3.13;;
37655;SDS011;23498;50.958;3.124;2023-03-30T16:54:21;14.95;;;3.30;;
37655;SDS011;23498;50.958;3.124;2023-03-30T16:56:54;12.32;;;2.80;;
37655;SDS011;23498;50.958;3.124;2023-03-30T16:59:23;24.40;;;4.70;;
37655;SDS011;23498;50.958;3.124;2023-03-30T17:01:56;17.10;;;2.80;;
37655;SDS011;23498;50.958;3.124;2023-03-30T17:04:22;16.67;;;2.90;;
37655;SDS011;23498;50.958;3.124;2023-03-30T17:06:51;13.32;;;2.83;;
37655;SDS011;23498;50.958;3.124;2023-03-30T17:17:39;12.50;;;2.47;;
37655;SDS011;23498;50.958;3.124;2023-03-30T17:20:17;13.98;;;3.10;;
37655;SDS011;23498;50.958;3.124;2023-03-30T17:23:20;14.98;;;2.88;;
37655;SDS011;23498;50.958;3.124;2023-03-30T17:25:49;13.15;;;3.30;;
37655;SDS011;23498;50.958;3.124;2023-03-30T17:28:21;15.10;;;3.30;;
37655;SDS011;23498;50.958;3.124;2023-03-30T17:33:43;13.45;;;2.95;;
37655;SDS011;23498;50.958;3.124;2023-03-30T17:36:11;13.27;;;2.95;;
37655;SDS011;23498;50.958;3.124;2023-03-30T17:38:38;17.65;;;2.90;;
37655;SDS011;23498;50.958;3.124;2023-03-30T17:41:11;13.85;;;2.95;;
37655;SDS011;23498;50.958;3.124;2023-03-30T17:43:58;15.10;;;2.85;;